Time;durP1;ratioP1;P1;durP2;ratioP2;P2;SDS_P1;SDS_P2;PMS_P1;PMS_P2;Temp;Humidity;BMP_temperature;BMP_pressure;BME280_temperature;BME280_humidity;BME280_pressure;Samples;Min_cycle;Max_cycle;Signal;HPM_P1;HPM_P2
2022/12/30 00:00:37;;;;;;;5.25;2.15;;;;;;;3.02;100.00;101012.09;1699856;83;21338;-61
2022/12/30 00:03:04;;;;;;;6.10;2.67;;;;;;;3.04;100.00;101024.88;1698733;83;21422;-60
2022/12/30 00:05:32;;;;;;;4.53;2.40;;;;;;;3.04;100.00;101018.44;1693851;84;21537;-61
2022/12/30 00:08:00;;;;;;;5.03;1.75;;;;;;;3.04;100.00;101015.86;1693859;84;21071;-65
2022/12/30 00:10:27;;;;;;;5.67;2.20;;;;;;;3.05;100.00;101016.20;1693336;84;20999;-59
2022/12/30 00:35:11;;;;;;;4.42;1.87;;;;;;;3.11;100.00;101002.41;1693782;84;21364;-61
2022/12/30 00:37:39;;;;;;;4.95;2.10;;;;;;;3.09;100.00;100995.25;1693542;84;21078;-66
2022/12/30 00:40:08;;;;;;;4.95;2.15;;;;;;;3.08;100.00;100993.62;1701961;84;21066;-61
2022/12/30 00:45:22;;;;;;;5.85;2.25;;;;;;;3.06;100.00;100986.92;1701466;84;21175;-63
2022/12/30 00:47:49;;;;;;;4.95;2.12;;;;;;;3.05;100.00;100984.01;1664856;86;21413;-61
2022/12/30 00:58:35;;;;;;;5.65;2.00;;;;;;;3.06;100.00;100976.16;1693680;84;21344;-63
2022/12/30 01:01:02;;;;;;;4.58;1.80;;;;;;;3.07;100.00;100982.13;1693553;84;21006;-67
2022/12/30 01:03:30;;;;;;;5.92;2.52;;;;;;;3.07;100.00;100977.81;1689899;84;21055;-62
2022/12/30 01:05:57;;;;;;;7.80;2.20;;;;;;;3.08;100.00;100978.16;1682885;85;21052;-62
2022/12/30 01:08:24;;;;;;;6.37;2.47;;;;;;;3.07;100.00;100967.52;1682168;84;21540;-67
2022/12/30 01:10:52;;;;;;;4.55;1.98;;;;;;;3.07;100.00;100972.66;1681674;85;22205;-60
2022/12/30 01:13:19;;;;;;;4.47;2.10;;;;;;;3.07;100.00;100973.95;1681963;85;21019;-65
2022/12/30 01:15:46;;;;;;;5.15;2.25;;;;;;;3.06;100.00;100968.42;1682445;84;21118;-59
2022/12/30 01:18:13;;;;;;;4.40;2.02;;;;;;;3.06;100.00;100975.34;1682509;84;21123;-59
2022/12/30 01:20:41;;;;;;;5.10;2.20;;;;;;;3.07;100.00;100973.95;1681780;85;21478;-59
2022/12/30 01:23:08;;;;;;;4.08;2.20;;;;;;;3.07;100.00;100958.50;1682371;84;21394;-66
2022/12/30 01:25:41;;;;;;;5.25;2.00;;;;;;;3.06;100.00;100958.13;1682063;85;21016;-59
2022/12/30 01:28:08;;;;;;;5.70;2.02;;;;;;;3.06;100.00;100958.13;1682287;83;21047;-65
2022/12/30 01:30:35;;;;;;;6.47;2.33;;;;;;;3.04;100.00;100954.86;1682147;85;21031;-59
2022/12/30 01:33:03;;;;;;;7.12;2.45;;;;;;;3.03;100.00;100953.23;1682013;85;20979;-65
2022/12/30 01:35:31;;;;;;;5.03;2.37;;;;;;;3.02;100.00;100956.72;1682621;84;21244;-59
2022/12/30 01:37:59;;;;;;;4.95;2.35;;;;;;;3.03;100.00;100953.23;1632488;85;21506;-58
2022/12/30 01:40:27;;;;;;;5.35;2.35;;;;;;;3.05;100.00;100949.23;1682110;85;21558;-59
2022/12/30 01:42:54;;;;;;;5.17;2.12;;;;;;;3.03;100.00;100944.22;1682406;85;21064;-59
2022/12/30 01:45:24;;;;;;;5.37;2.45;;;;;;;3.01;100.00;100947.84;1681757;85;21023;-59
2022/12/30 01:48:02;;;;;;;6.33;2.27;;;;;;;2.98;100.00;100954.03;1653372;85;21864;-59
2022/12/30 01:50:51;;;;;;;8.18;2.90;;;;;;;2.95;100.00;100952.97;1681562;84;21618;-60
2022/12/30 01:53:29;;;;;;;3.90;1.98;;;;;;;2.93;100.00;100954.86;1682540;83;21020;-59
2022/12/30 01:56:36;;;;;;;4.25;2.15;;;;;;;2.89;100.00;100954.27;1681692;84;21007;-61
2022/12/30 01:59:15;;;;;;;4.85;2.37;;;;;;;2.86;100.00;100945.48;1651322;84;20912;-60
2022/12/30 02:01:42;;;;;;;4.45;1.80;;;;;;;2.83;100.00;100947.00;1651113;86;21504;-66
2022/12/30 02:04:15;;;;;;;4.15;1.70;;;;;;;2.81;100.00;100950.64;1649979;86;21098;-61
2022/12/30 02:07:06;;;;;;;4.47;2.17;;;;;;;2.81;100.00;100949.36;1650716;85;21070;-60
2022/12/30 02:09:35;;;;;;;5.03;2.25;;;;;;;2.82;100.00;100958.71;1650383;86;20963;-61
2022/12/30 02:12:03;;;;;;;5.12;2.35;;;;;;;2.84;100.00;100955.09;1650699;86;21109;-60
2022/12/30 02:14:33;;;;;;;4.47;1.95;;;;;;;2.86;100.00;100945.95;1651528;86;21301;-60
2022/12/30 02:17:19;;;;;;;5.53;2.15;;;;;;;2.86;100.00;100941.63;1651268;86;21031;-62
2022/12/30 02:20:00;;;;;;;6.30;2.37;;;;;;;2.87;100.00;100934.23;1641975;86;21608;-60
2022/12/30 02:22:52;;;;;;;4.90;2.40;;;;;;;2.87;100.00;100926.98;1651384;86;21075;-60
2022/12/30 02:25:48;;;;;;;6.15;2.33;;;;;;;2.86;100.00;100924.06;1650911;86;21352;-60
2022/12/30 02:28:42;;;;;;;3.45;1.65;;;;;;;2.91;100.00;100928.39;1650768;86;21963;-67
2022/12/30 02:31:39;;;;;;;4.22;1.87;;;;;;;2.93;100.00;100927.34;1651377;86;20967;-58
2022/12/30 02:34:15;;;;;;;5.70;1.98;;;;;;;2.99;100.00;100922.18;1650900;86;20999;-62
2022/12/30 02:37:02;;;;;;;5.35;1.90;;;;;;;3.01;100.00;100925.47;1650798;86;20979;-60
2022/12/30 02:39:37;;;;;;;5.45;2.20;;;;;;;3.05;100.00;100932.50;1650464;86;21990;-66
2022/12/30 02:45:19;;;;;;;4.12;1.87;;;;;;;3.07;100.00;100934.03;1650414;86;21082;-61
2022/12/30 02:47:55;;;;;;;5.22;1.87;;;;;;;3.07;100.00;100939.18;1652215;86;20920;-65
2022/12/30 02:53:17;;;;;;;6.75;2.50;;;;;;;3.06;100.00;100945.25;1650596;86;21101;-66
2022/12/30 02:55:44;;;;;;;7.22;2.10;;;;;;;3.06;100.00;100956.84;1640884;86;21768;-60
2022/12/30 02:58:11;;;;;;;3.50;1.50;;;;;;;3.08;100.00;100962.70;1650972;86;21026;-66
2022/12/30 03:04:07;;;;;;;5.08;2.10;;;;;;;3.08;100.00;100965.28;1650786;86;21086;-61
2022/12/30 03:07:03;;;;;;;5.20;2.27;;;;;;;3.07;100.00;100974.39;1649889;86;20908;-65
2022/12/30 03:12:46;;;;;;;6.37;2.98;;;;;;;3.01;100.00;100986.00;1650641;86;21078;-62
2022/12/30 03:15:17;;;;;;;4.08;1.82;;;;;;;2.96;100.00;100989.87;1649119;86;21093;-59
2022/12/30 03:17:45;;;;;;;5.95;2.42;;;;;;;2.92;100.00;100986.70;1630137;86;21041;-60
2022/12/30 03:20:15;;;;;;;3.98;1.75;;;;;;;2.92;100.00;100993.14;1650841;86;21050;-59
2022/12/30 03:28:15;;;;;;;5.45;2.33;;;;;;;2.92;100.00;101003.44;1651111;86;21525;-64
2022/12/30 03:30:52;;;;;;;6.00;2.40;;;;;;;2.92;100.00;101000.40;1650946;86;21529;-61
2022/12/30 03:33:19;;;;;;;4.80;2.37;;;;;;;2.92;100.00;100998.30;1651025;86;21844;-59
2022/12/30 03:35:56;;;;;;;5.00;2.62;;;;;;;2.95;100.00;101001.91;1651430;86;21217;-59
2022/12/30 03:38:28;;;;;;;5.90;2.50;;;;;;;2.94;100.00;101004.13;1650666;86;20931;-64
2022/12/30 03:40:56;;;;;;;5.75;2.40;;;;;;;2.96;100.00;101004.03;1651239;86;21098;-60
2022/12/30 03:43:23;;;;;;;7.10;2.55;;;;;;;2.98;100.00;101008.11;1651385;86;21086;-59
2022/12/30 03:45:51;;;;;;;5.70;2.60;;;;;;;2.99;100.00;101007.64;1651284;86;21474;-61
2022/12/30 03:48:18;;;;;;;6.83;2.70;;;;;;;3.00;100.00;101007.55;1650771;86;21324;-61
2022/12/30 03:50:46;;;;;;;5.53;2.33;;;;;;;2.99;100.00;101007.17;1651043;86;21163;-58
2022/12/30 03:53:13;;;;;;;4.87;2.42;;;;;;;3.00;100.00;101001.58;1651222;86;21570;-59
2022/12/30 03:55:40;;;;;;;4.92;2.22;;;;;;;3.01;100.00;101009.17;1650451;86;21574;-61
2022/12/30 03:58:07;;;;;;;4.20;2.30;;;;;;;3.03;100.00;101016.77;1651175;85;21030;-58
2022/12/30 04:00:36;;;;;;;5.22;2.50;;;;;;;3.03;100.00;101015.48;1650611;86;21297;-60
2022/12/30 04:03:03;;;;;;;6.00;2.60;;;;;;;3.03;100.00;101015.05;1651048;86;21094;-59
2022/12/30 04:05:30;;;;;;;5.67;2.72;;;;;;;3.03;100.00;101020.20;1651255;86;20959;-61
2022/12/30 04:07:58;;;;;;;7.22;2.80;;;;;;;3.04;100.00;101017.16;1650667;86;21054;-60
2022/12/30 04:10:26;;;;;;;6.12;3.00;;;;;;;3.05;100.00;101017.50;1651258;86;21415;-59
2022/12/30 04:12:53;;;;;;;5.40;3.00;;;;;;;3.05;100.00;101014.92;1650540;86;21734;-60
2022/12/30 04:15:20;;;;;;;7.10;3.10;;;;;;;3.05;100.00;101014.45;1650663;86;21452;-60
2022/12/30 04:17:48;;;;;;;7.20;2.92;;;;;;;3.04;100.00;101017.97;1650802;86;21050;-59
2022/12/30 04:20:16;;;;;;;5.47;2.70;;;;;;;3.05;100.00;101018.31;1650391;86;20932;-60
2022/12/30 04:22:43;;;;;;;5.90;2.30;;;;;;;3.06;100.00;101012.22;1650931;86;21633;-61
2022/12/30 04:25:10;;;;;;;4.10;2.37;;;;;;;3.07;100.00;101017.74;1651310;86;22004;-59
2022/12/30 04:27:38;;;;;;;4.92;1.98;;;;;;;3.09;100.00;101018.43;1651231;86;20975;-59
2022/12/30 04:30:07;;;;;;;6.70;2.60;;;;;;;3.10;100.00;101011.05;1650257;86;20987;-64
2022/12/30 04:32:34;;;;;;;4.45;2.08;;;;;;;3.12;100.00;101004.51;1650608;86;21924;-61
2022/12/30 04:35:01;;;;;;;5.25;2.15;;;;;;;3.12;100.00;101011.77;1650601;86;21505;-59
2022/12/30 04:37:30;;;;;;;4.75;2.00;;;;;;;3.13;100.00;101008.72;1651357;86;21241;-59
2022/12/30 04:39:57;;;;;;;4.75;1.85;;;;;;;3.13;100.00;101008.24;1651258;86;21498;-60
2022/12/30 04:42:25;;;;;;;6.08;2.20;;;;;;;3.14;100.00;101011.19;1650446;86;21090;-59
2022/12/30 04:44:52;;;;;;;6.53;2.37;;;;;;;3.15;100.00;101012.83;1650367;86;21030;-60
2022/12/30 04:47:20;;;;;;;3.92;1.87;;;;;;;3.12;100.00;101013.52;1651456;86;21472;-59
2022/12/30 04:49:47;;;;;;;5.30;2.00;;;;;;;3.12;100.00;101014.34;1651231;86;21152;-59
2022/12/30 04:52:14;;;;;;;4.00;1.75;;;;;;;3.10;100.00;101008.94;1650653;86;21015;-59
2022/12/30 04:54:41;;;;;;;3.98;1.75;;;;;;;3.12;100.00;101008.38;1651146;86;21607;-59
2022/12/30 04:57:09;;;;;;;5.35;2.35;;;;;;;3.11;100.00;101010.61;1650430;86;21122;-60
2022/12/30 04:59:36;;;;;;;4.15;2.10;;;;;;;3.08;100.00;101010.36;1651407;85;21098;-59
2022/12/30 05:02:03;;;;;;;5.35;2.00;;;;;;;3.09;100.00;101014.56;1650862;86;21156;-60
2022/12/30 05:04:30;;;;;;;4.53;1.90;;;;;;;3.09;100.00;101022.30;1650424;86;21655;-59
2022/12/30 05:06:58;;;;;;;5.33;1.95;;;;;;;3.10;100.00;101021.82;1650889;86;21878;-65
2022/12/30 05:09:26;;;;;;;7.20;2.62;;;;;;;3.11;100.00;101023.48;1650337;86;21079;-59
2022/12/30 05:11:54;;;;;;;6.25;2.77;;;;;;;3.10;100.00;101019.25;1651031;86;21054;-60
2022/12/30 05:14:22;;;;;;;6.30;2.90;;;;;;;3.12;100.00;101030.27;1650627;86;21148;-66
2022/12/30 05:16:49;;;;;;;5.92;2.60;;;;;;;3.14;100.00;101027.09;1650894;86;21138;-59
2022/12/30 05:19:16;;;;;;;4.87;2.40;;;;;;;3.14;100.00;101020.20;1650466;86;20999;-61
2022/12/30 05:21:44;;;;;;;5.03;2.67;;;;;;;3.15;100.00;101021.84;1650876;86;21540;-59
2022/12/30 05:26:58;;;;;;;7.03;3.17;;;;;;;3.10;100.00;101021.34;1651037;86;21279;-61
2022/12/30 05:29:25;;;;;;;7.22;3.75;;;;;;;3.10;100.00;101029.08;1650910;86;20959;-59
2022/12/30 05:31:52;;;;;;;7.08;3.15;;;;;;;3.14;100.00;101025.80;1651096;85;21004;-59
2022/12/30 05:34:20;;;;;;;7.55;3.60;;;;;;;3.16;100.00;101026.52;1650601;86;21507;-60
2022/12/30 05:36:47;;;;;;;6.17;3.17;;;;;;;3.18;100.00;101031.08;1651206;86;21474;-59
2022/12/30 05:39:15;;;;;;;7.65;2.70;;;;;;;3.21;100.00;101034.71;1650355;86;21098;-63
2022/12/30 05:41:42;;;;;;;5.75;3.00;;;;;;;3.23;100.00;101030.28;1651385;86;21082;-59
2022/12/30 05:44:10;;;;;;;6.80;2.98;;;;;;;3.25;100.00;101033.54;1650263;86;20971;-61
2022/12/30 05:46:37;;;;;;;7.05;2.95;;;;;;;3.29;100.00;101030.27;1651143;86;21093;-60
2022/12/30 05:49:04;;;;;;;8.10;4.62;;;;;;;3.32;100.00;101031.33;1650960;86;21011;-63
2022/12/30 05:51:31;;;;;;;8.08;3.65;;;;;;;3.35;100.00;101027.23;1650944;86;21287;-59
2022/12/30 05:53:59;;;;;;;7.08;2.87;;;;;;;3.38;100.00;101029.58;1650645;86;21042;-61
2022/12/30 05:56:26;;;;;;;4.65;2.40;;;;;;;3.41;100.00;101026.77;1651023;86;21452;-59
2022/12/30 05:58:54;;;;;;;6.00;1.85;;;;;;;3.45;100.00;101026.89;1659810;85;21019;-63
2022/12/30 06:01:21;;;;;;;5.10;2.22;;;;;;;3.48;100.00;101027.91;1667356;85;21598;-60
2022/12/30 06:03:48;;;;;;;5.00;1.60;;;;;;;3.51;100.00;101033.31;1668138;85;22338;-67
2022/12/30 06:06:16;;;;;;;4.78;2.05;;;;;;;3.56;100.00;101031.19;1667453;85;21026;-59
2022/12/30 06:08:43;;;;;;;5.85;2.25;;;;;;;3.59;100.00;101032.25;1667996;85;20982;-60
2022/12/30 06:11:11;;;;;;;4.12;2.20;;;;;;;3.62;100.00;101031.55;1668159;85;20958;-62
2022/12/30 06:13:38;;;;;;;6.60;2.75;;;;;;;3.66;100.00;101035.52;1667612;85;21549;-60
2022/12/30 06:16:06;;;;;;;5.15;2.35;;;;;;;3.70;100.00;101019.34;1667667;85;22000;-64
2022/12/30 06:18:33;;;;;;;6.22;2.87;;;;;;;3.75;100.00;101029.30;1668011;85;21045;-58
2022/12/30 06:21:01;;;;;;;6.60;2.90;;;;;;;3.80;100.00;101029.77;1667805;85;21105;-59
2022/12/30 06:23:28;;;;;;;7.97;3.45;;;;;;;3.83;100.00;101025.20;1667170;85;21066;-59
2022/12/30 06:25:57;;;;;;;6.72;3.00;;;;;;;3.88;100.00;101028.22;1667943;85;21510;-59
2022/12/30 06:28:28;;;;;;;6.83;3.37;;;;;;;3.92;100.00;101031.86;1667254;85;21925;-64
2022/12/30 06:30:55;;;;;;;5.45;2.40;;;;;;;4.00;100.00;101035.94;1668152;85;21601;-60
2022/12/30 06:33:23;;;;;;;6.73;3.13;;;;;;;3.98;100.00;101041.67;1667576;85;20974;-64
2022/12/30 06:35:50;;;;;;;6.22;2.42;;;;;;;4.04;100.00;101045.07;1668339;85;21744;-59
2022/12/30 06:38:18;;;;;;;6.05;2.50;;;;;;;4.05;100.00;101046.26;1667683;84;20970;-63
2022/12/30 06:40:46;;;;;;;7.77;3.70;;;;;;;4.10;100.00;101044.13;1667818;85;21889;-58
2022/12/30 06:43:14;;;;;;;6.33;3.72;;;;;;;4.13;100.00;101045.17;1667717;85;21777;-59
2022/12/30 06:45:42;;;;;;;5.55;2.95;;;;;;;4.18;100.00;101040.94;1667460;85;21010;-60
2022/12/30 06:48:09;;;;;;;8.87;4.30;;;;;;;4.22;100.00;101042.80;1667736;85;21770;-65
2022/12/30 06:50:36;;;;;;;7.23;3.80;;;;;;;4.26;100.00;101044.19;1668254;85;22089;-59
2022/12/30 06:53:05;;;;;;;7.70;4.00;;;;;;;4.31;100.00;101042.87;1668050;85;21849;-60
2022/12/30 06:55:32;;;;;;;10.30;4.47;;;;;;;4.32;100.00;101041.95;1667857;85;21017;-59
2022/12/30 06:58:01;;;;;;;7.17;3.53;;;;;;;4.35;100.00;101040.86;1668049;85;21583;-59
2022/12/30 07:00:29;;;;;;;8.73;5.12;;;;;;;4.43;100.00;101041.53;1667385;85;21633;-60
2022/12/30 07:02:57;;;;;;;8.00;3.20;;;;;;;4.41;100.00;101049.89;1667937;85;21463;-61
2022/12/30 07:05:24;;;;;;;8.90;3.10;;;;;;;4.49;100.00;101047.50;1667227;85;21633;-59
2022/12/30 07:07:51;;;;;;;7.37;3.33;;;;;;;4.45;100.00;101063.71;1668215;85;22150;-60
2022/12/30 07:10:20;;;;;;;6.58;2.60;;;;;;;4.47;100.00;101053.25;1668256;85;21310;-64
2022/12/30 07:12:48;;;;;;;6.50;3.00;;;;;;;4.54;100.00;101054.39;1667792;85;22205;-59
2022/12/30 07:15:15;;;;;;;4.33;2.37;;;;;;;4.57;100.00;101053.67;1667321;85;22056;-60
2022/12/30 07:17:43;;;;;;;4.27;2.30;;;;;;;4.63;100.00;101058.36;1668203;85;21971;-60
2022/12/30 07:20:12;;;;;;;5.80;2.57;;;;;;;4.69;100.00;101058.79;1668238;85;21320;-61
2022/12/30 07:22:40;;;;;;;6.97;2.40;;;;;;;4.73;100.00;101060.17;1667275;84;21286;-59
2022/12/30 07:25:08;;;;;;;5.13;2.20;;;;;;;4.78;100.00;101058.05;1667864;84;21330;-61
2022/12/30 07:27:35;;;;;;;3.43;1.97;;;;;;;4.84;100.00;101057.05;1668072;85;21375;-59
2022/12/30 07:30:03;;;;;;;5.83;2.40;;;;;;;4.91;100.00;101060.44;1667542;85;21359;-59
2022/12/30 07:32:32;;;;;;;10.03;2.70;;;;;;;4.96;100.00;101059.58;1667785;85;21854;-60
2022/12/30 07:34:59;;;;;;;6.93;2.90;;;;;;;5.00;100.00;101060.52;1668201;85;21589;-59
2022/12/30 07:37:26;;;;;;;5.37;2.90;;;;;;;5.07;100.00;101062.91;1667443;85;21217;-60
2022/12/30 07:39:54;;;;;;;7.53;4.23;;;;;;;5.13;100.00;101059.83;1667958;84;21324;-58
2022/12/30 07:42:22;;;;;;;5.30;2.90;;;;;;;5.20;100.00;101058.84;1668025;85;21271;-65
2022/12/30 07:44:49;;;;;;;6.87;2.83;;;;;;;5.29;100.00;101057.25;1668048;85;21807;-59
2022/12/30 07:47:17;;;;;;;6.13;2.43;;;;;;;5.35;100.00;101063.20;1667830;85;21993;-60
2022/12/30 07:49:46;;;;;;;9.40;4.20;;;;;;;5.42;100.00;101060.45;1668033;85;21751;-59
2022/12/30 07:52:13;;;;;;;7.50;3.37;;;;;;;5.56;100.00;101061.84;1667995;85;21789;-60
2022/12/30 07:54:42;;;;;;;6.63;3.33;;;;;;;5.54;100.00;101056.82;1667267;85;21158;-60
2022/12/30 07:57:10;;;;;;;5.40;2.80;;;;;;;5.58;100.00;101057.37;1668063;85;21409;-64
2022/12/30 07:59:37;;;;;;;7.57;2.90;;;;;;;5.64;100.00;101057.31;1658658;85;21315;-59
2022/12/30 08:02:04;;;;;;;5.33;2.73;;;;;;;5.66;100.00;101055.43;1651131;86;21856;-60
2022/12/30 08:04:32;;;;;;;5.57;2.73;;;;;;;5.71;100.00;101045.50;1650683;86;21396;-61
2022/12/30 08:06:59;;;;;;;5.47;2.50;;;;;;;5.76;100.00;101047.23;1650653;86;21347;-59
2022/12/30 08:09:26;;;;;;;5.20;2.40;;;;;;;5.80;100.00;101043.43;1650492;86;21759;-59
2022/12/30 08:11:54;;;;;;;5.57;2.50;;;;;;;5.82;100.00;101042.33;1651149;86;21842;-59
2022/12/30 08:14:21;;;;;;;6.67;2.60;;;;;;;5.85;100.00;101031.72;1651343;86;21104;-59
2022/12/30 08:16:49;;;;;;;7.03;3.93;;;;;;;5.89;100.00;101043.91;1650807;86;21761;-63
2022/12/30 08:19:16;;;;;;;6.73;3.87;;;;;;;5.91;100.00;101038.14;1650696;86;22964;-60
2022/12/30 08:21:43;;;;;;;5.63;2.77;;;;;;;5.97;100.00;101036.81;1651039;86;21243;-59
2022/12/30 08:24:10;;;;;;;5.60;2.40;;;;;;;6.02;100.00;101028.16;1651390;86;21108;-59
2022/12/30 08:26:38;;;;;;;7.00;2.70;;;;;;;6.06;100.00;101026.48;1651231;86;21271;-61
2022/12/30 08:29:06;;;;;;;5.47;3.07;;;;;;;6.11;100.00;101025.26;1651003;86;21220;-61
2022/12/30 08:31:33;;;;;;;8.40;3.27;;;;;;;6.17;100.00;101025.99;1650772;86;22308;-62
2022/12/30 08:34:00;;;;;;;6.87;2.93;;;;;;;6.25;100.00;101023.09;1651350;86;21672;-59
2022/12/30 08:36:29;;;;;;;6.00;2.83;;;;;;;6.33;100.00;101019.34;1651760;86;21290;-59
2022/12/30 08:39:00;;;;;;;5.23;2.93;;;;;;;6.44;100.00;101017.09;1650573;86;21375;-63
2022/12/30 08:41:31;;;;;;;10.93;6.12;;;;;;;6.55;100.00;101011.77;1650923;86;21311;-65
2022/12/30 08:43:58;;;;;;;7.47;3.70;;;;;;;6.64;100.00;101002.82;1650953;86;21255;-59
2022/12/30 08:46:27;;;;;;;5.20;2.80;;;;;;;6.71;100.00;100994.34;1650769;86;21031;-60
2022/12/30 08:48:54;;;;;;;6.50;3.37;;;;;;;6.80;100.00;100995.28;1650474;86;21318;-65
2022/12/30 08:51:21;;;;;;;5.30;3.00;;;;;;;6.85;100.00;100996.14;1650613;86;21378;-59
2022/12/30 08:53:48;;;;;;;5.50;3.00;;;;;;;6.93;100.00;100998.39;1650451;86;21366;-61
2022/12/30 08:56:27;;;;;;;6.50;2.67;;;;;;;7.02;100.00;100996.23;1651108;86;21453;-59
2022/12/30 08:58:54;;;;;;;6.73;2.90;;;;;;;7.12;100.00;100986.30;1651401;85;21309;-60
2022/12/30 09:01:24;;;;;;;5.57;3.40;;;;;;;7.19;100.00;100986.88;1665119;86;21802;-61
2022/12/30 09:03:52;;;;;;;5.43;2.63;;;;;;;7.30;100.00;100980.22;1665619;86;21760;-59
2022/12/30 09:06:21;;;;;;;9.63;3.10;;;;;;;7.49;100.00;100982.37;1665531;85;21432;-60
2022/12/30 09:08:48;;;;;;;9.60;3.30;;;;;;;7.69;100.00;100989.56;1664973;86;21298;-66
2022/12/30 09:11:25;;;;;;;7.23;3.20;;;;;;;7.76;100.00;100977.64;1665383;86;21544;-59
2022/12/30 09:13:52;;;;;;;4.80;2.70;;;;;;;7.79;100.00;100977.34;1665715;85;22157;-59
2022/12/30 09:16:23;;;;;;;5.90;2.97;;;;;;;7.78;100.00;100976.54;1665747;86;21739;-59
2022/12/30 09:21:09;;;;;;;5.53;3.20;;;;;;;7.85;100.00;100968.98;1798149;78;22876;-60
2022/12/30 09:23:39;;;;;;;8.10;3.43;;;;;;;7.78;100.00;100965.34;1785989;80;20967;-61
2022/12/30 09:26:08;;;;;;;5.90;3.50;;;;;;;7.74;100.00;100975.20;1751338;81;21303;-60
2022/12/30 09:28:35;;;;;;;6.60;3.53;;;;;;;7.69;100.00;100980.48;1784991;80;22035;-60
2022/12/30 09:31:03;;;;;;;7.87;4.47;;;;;;;7.71;100.00;100969.00;1785860;80;21739;-61
2022/12/30 09:33:31;;;;;;;8.47;4.37;;;;;;;7.88;100.00;100975.19;1786316;80;21635;-59
2022/12/30 09:35:59;;;;;;;8.30;4.17;;;;;;;7.97;100.00;100966.50;1751926;81;21168;-59
2022/12/30 09:38:26;;;;;;;8.67;3.77;;;;;;;8.06;100.00;100968.67;1786469;80;21615;-61
2022/12/30 09:44:32;;;;;;;6.17;3.58;;;;;;;8.13;100.00;100972.80;1784839;80;21653;-63
2022/12/30 09:47:13;;;;;;;7.97;3.70;;;;;;;8.28;100.00;100970.00;1785121;80;21037;-60
2022/12/30 09:49:44;;;;;;;7.03;3.47;;;;;;;8.46;100.00;100969.52;1750276;81;22042;-66
2022/12/30 09:52:15;;;;;;;6.10;3.37;;;;;;;8.54;100.00;100968.77;1784848;80;21769;-61
2022/12/30 09:54:50;;;;;;;5.47;3.47;;;;;;;8.52;100.00;100961.13;1692494;81;22391;-60
2022/12/30 09:57:32;;;;;;;6.40;3.80;;;;;;;8.51;100.00;100959.48;1746672;82;21712;-66
2022/12/30 10:00:13;;;;;;;7.70;4.43;;;;;;;8.46;100.00;100964.81;1785385;80;21995;-61
2022/12/30 10:03:09;;;;;;;8.20;4.70;;;;;;;8.43;100.00;100972.42;1751007;81;21448;-59
2022/12/30 10:05:47;;;;;;;7.77;4.93;;;;;;;8.39;100.00;100972.87;1750541;81;22083;-59
2022/12/30 10:08:46;;;;;;;8.37;4.40;;;;;;;8.31;100.00;100964.52;1750197;81;21600;-61
2022/12/30 10:11:26;;;;;;;8.00;4.10;;;;;;;8.22;100.00;100967.99;1726755;81;22604;-59
2022/12/30 10:13:50;;;;;;;7.53;4.07;;;;;;;8.10;100.00;100967.89;1749712;81;21599;-60
2022/12/30 10:16:38;;;;;;;8.67;3.60;;;;;;;8.02;100.00;100960.85;1784903;80;21646;-60
2022/12/30 10:19:13;;;;;;;7.63;3.40;;;;;;;7.96;100.00;100966.17;1750593;81;21764;-60
2022/12/30 10:22:07;;;;;;;12.07;5.50;;;;;;;7.92;100.00;100958.34;1756174;80;22184;-64
2022/12/30 10:25:04;;;;;;;8.07;3.60;;;;;;;7.89;100.00;100966.42;1756151;81;22165;-61
2022/12/30 10:27:48;;;;;;;8.40;5.07;;;;;;;7.91;100.00;100958.48;1765652;77;22695;-61
2022/12/30 10:30:22;;;;;;;9.73;4.60;;;;;;;7.92;100.00;100964.84;1766321;81;21704;-62
2022/12/30 10:32:57;;;;;;;9.00;4.63;;;;;;;7.92;100.00;100960.95;1764410;81;21610;-63
2022/12/30 10:35:26;;;;;;;6.37;4.27;;;;;;;7.86;100.00;100964.61;1764297;81;21711;-59
2022/12/30 10:38:13;;;;;;;8.83;4.60;;;;;;;7.86;100.00;100964.61;1765003;81;21668;-61
2022/12/30 10:41:12;;;;;;;6.80;4.00;;;;;;;7.82;100.00;100957.59;1715707;83;21301;-60
2022/12/30 10:44:04;;;;;;;6.43;3.47;;;;;;;7.81;100.00;100954.67;1716546;83;22043;-60
2022/12/30 10:46:40;;;;;;;6.50;2.83;;;;;;;7.85;100.00;100955.20;1716835;83;21411;-61
2022/12/30 10:49:39;;;;;;;7.30;3.63;;;;;;;7.80;100.00;100958.21;1715748;83;21436;-61
2022/12/30 10:52:08;;;;;;;5.93;3.00;;;;;;;7.80;100.00;100958.21;1716252;83;21702;-60
2022/12/30 10:54:36;;;;;;;6.23;3.00;;;;;;;7.86;100.00;100954.22;1716130;83;21905;-65
2022/12/30 10:57:03;;;;;;;9.30;4.23;;;;;;;7.89;100.00;100947.44;1716365;83;21910;-66
2022/12/30 10:59:31;;;;;;;7.23;3.90;;;;;;;7.91;100.00;100939.82;1716160;82;22201;-61
2022/12/30 11:02:01;;;;;;;7.47;3.67;;;;;;;8.00;100.00;100936.84;1715763;83;21711;-60
2022/12/30 11:04:36;;;;;;;8.28;3.65;;;;;;;8.00;100.00;100936.84;1713744;83;22139;-62
2022/12/30 11:07:07;;;;;;;7.13;4.23;;;;;;;7.99;100.00;100934.73;1715870;83;21031;-63
2022/12/30 11:09:34;;;;;;;7.53;4.70;;;;;;;7.96;100.00;100936.31;1716345;83;21850;-61
2022/12/30 11:15:14;;;;;;;7.53;3.87;;;;;;;7.84;100.00;100929.73;1703091;83;21688;-61
2022/12/30 11:17:50;;;;;;;5.50;2.97;;;;;;;7.71;100.00;100931.86;1716534;83;22149;-61
2022/12/30 11:20:35;;;;;;;6.20;2.47;;;;;;;7.66;100.00;100927.61;1715872;83;21702;-60
2022/12/30 11:23:07;;;;;;;6.07;3.00;;;;;;;7.66;100.00;100927.61;1716395;83;21535;-61
2022/12/30 11:25:39;;;;;;;5.63;2.53;;;;;;;7.59;100.00;100930.45;1712983;83;21488;-66
2022/12/30 11:28:07;;;;;;;4.67;2.73;;;;;;;7.55;100.00;100926.03;1693011;84;21204;-62
2022/12/30 11:30:41;;;;;;;6.30;3.40;;;;;;;7.53;100.00;100931.34;1674351;84;22826;-59
2022/12/30 11:33:19;;;;;;;7.03;3.37;;;;;;;7.51;100.00;100935.88;1692028;84;21483;-61
2022/12/30 11:35:48;;;;;;;4.63;2.50;;;;;;;7.45;100.00;100929.97;1693530;83;21814;-66
2022/12/30 11:38:36;;;;;;;7.73;2.37;;;;;;;7.39;100.00;100943.54;1694099;83;21281;-63
2022/12/30 11:41:26;;;;;;;7.10;2.83;;;;;;;7.33;100.00;100941.52;1694174;84;21338;-61
2022/12/30 11:44:04;;;;;;;4.20;2.30;;;;;;;7.28;100.00;100935.95;1693596;84;21359;-66
2022/12/30 11:46:36;;;;;;;6.90;2.57;;;;;;;7.20;100.00;100935.87;1693984;83;21840;-61
2022/12/30 11:49:26;;;;;;;5.83;2.50;;;;;;;7.13;100.00;100934.33;1693640;84;21844;-63
2022/12/30 11:51:56;;;;;;;5.73;2.67;;;;;;;7.10;100.00;100935.09;1693305;84;21498;-62
2022/12/30 11:54:26;;;;;;;5.90;2.63;;;;;;;7.03;100.00;100932.24;1693611;84;21236;-61
2022/12/30 11:57:06;;;;;;;5.67;2.67;;;;;;;6.99;100.00;100942.08;1693638;84;21631;-65
2022/12/30 11:59:48;;;;;;;5.17;2.40;;;;;;;6.98;100.00;100937.86;1691063;84;21357;-63
2022/12/30 12:02:37;;;;;;;5.87;2.98;;;;;;;6.96;100.00;100933.77;1693656;84;21776;-64
2022/12/30 12:05:30;;;;;;;4.93;2.60;;;;;;;6.95;100.00;100942.03;1694166;84;22239;-62
2022/12/30 12:08:12;;;;;;;5.97;3.07;;;;;;;6.93;100.00;100942.67;1692239;84;21239;-60
2022/12/30 12:10:40;;;;;;;7.93;3.60;;;;;;;6.91;100.00;100949.76;1694335;84;21252;-61
2022/12/30 12:13:49;;;;;;;12.97;4.67;;;;;;;6.89;100.00;100942.59;1694020;83;21449;-59
2022/12/30 12:16:47;;;;;;;7.27;4.07;;;;;;;6.84;100.00;100951.28;1693636;84;21603;-61
2022/12/30 12:19:29;;;;;;;6.77;3.30;;;;;;;6.84;100.00;100951.28;1693611;84;21476;-65
2022/12/30 12:21:58;;;;;;;6.97;3.50;;;;;;;6.84;100.00;100951.28;1693782;83;21280;-65
2022/12/30 12:24:38;;;;;;;6.43;3.40;;;;;;;6.84;100.00;100951.28;1693224;83;21235;-61
2022/12/30 12:27:16;;;;;;;7.70;3.20;;;;;;;6.83;100.00;100954.35;1701354;82;21201;-65
2022/12/30 12:29:43;;;;;;;11.13;5.90;;;;;;;6.85;100.00;100958.57;1696287;84;21807;-60
2022/12/30 12:32:54;;;;;;;10.30;5.43;;;;;;;6.84;100.00;100951.28;1712449;83;22035;-61
2022/12/30 12:35:49;;;;;;;9.00;4.55;;;;;;;6.86;100.00;100957.60;1712338;83;21383;-61
2022/12/30 12:38:43;;;;;;;9.00;4.20;;;;;;;6.85;100.00;100960.68;1704370;83;20991;-60
2022/12/30 12:41:40;;;;;;;6.73;3.50;;;;;;;6.86;100.00;100962.33;1711898;83;21205;-59
2022/12/30 12:44:36;;;;;;;8.63;5.30;;;;;;;6.86;100.00;100962.33;1710856;83;21348;-60
2022/12/30 12:47:28;;;;;;;6.93;3.67;;;;;;;6.85;100.00;100958.09;1711501;83;21260;-62
2022/12/30 12:50:15;;;;;;;6.95;2.95;;;;;;;6.86;100.00;100957.16;1712148;83;21290;-60